Time;durP1;ratioP1;P1;durP2;ratioP2;P2;SDS_P1;SDS_P2;PMS_P1;PMS_P2;Temp;Humidity;BMP_temperature;BMP_pressure;BME280_temperature;BME280_humidity;BME280_pressure;Samples;Min_cycle;Max_cycle;Signal;HPM_P1;HPM_P2
2022/09/16 00:01:16;;;;;;;6.25;2.35;;;;;;;11.90;89.36;101055.13;5067934;28;20013;-56
2022/09/16 00:03:43;;;;;;;7.85;3.08;;;;;;;11.90;89.15;101055.13;5061528;28;20434;-56
2022/09/16 00:06:23;;;;;;;7.82;2.72;;;;;;;11.95;89.89;101060.97;5062224;28;20056;-56
2022/09/16 00:08:49;;;;;;;10.48;2.75;;;;;;;11.96;89.93;101063.53;5045695;28;20122;-57
2022/09/16 00:11:16;;;;;;;4.57;2.72;;;;;;;11.95;89.41;101056.50;5052530;28;20021;-56
2022/09/16 00:13:41;;;;;;;6.18;2.63;;;;;;;11.96;89.15;101060.03;5052564;28;20107;-56
2022/09/16 00:16:18;;;;;;;7.07;2.80;;;;;;;11.98;90.01;101056.25;5048480;28;20111;-55
2022/09/16 00:18:43;;;;;;;12.60;2.88;;;;;;;11.99;89.66;101054.44;5072132;28;20029;-56
2022/09/16 00:21:09;;;;;;;5.20;2.30;;;;;;;12.00;90.05;101051.66;5065340;28;20140;-55
2022/09/16 00:23:35;;;;;;;11.90;2.90;;;;;;;12.01;90.57;101053.34;5061535;28;20282;-56
2022/09/16 00:26:01;;;;;;;5.65;2.20;;;;;;;12.02;89.25;101049.72;5064633;28;20040;-56
2022/09/16 00:28:26;;;;;;;5.43;2.47;;;;;;;12.02;90.01;101051.53;5044606;28;20026;-56
2022/09/16 00:30:52;;;;;;;4.57;2.30;;;;;;;12.01;89.44;101047.19;5072140;28;20024;-56
2022/09/16 00:33:18;;;;;;;5.82;2.38;;;;;;;12.00;89.30;101054.31;5057816;28;20060;-55
2022/09/16 00:35:45;;;;;;;8.70;2.88;;;;;;;11.97;88.49;101046.59;5052862;28;20021;-55
2022/09/16 00:38:11;;;;;;;7.97;2.53;;;;;;;11.95;88.83;101050.31;5071889;28;20025;-54
2022/09/16 00:40:44;;;;;;;9.27;2.30;;;;;;;11.93;88.12;101045.13;5067244;28;20531;-54
2022/09/16 00:43:13;;;;;;;9.05;2.80;;;;;;;11.88;87.92;101043.78;5062898;28;20429;-55
2022/09/16 00:45:38;;;;;;;8.23;2.50;;;;;;;11.90;88.25;101036.50;5074668;28;20029;-54
2022/09/16 00:48:06;;;;;;;10.50;2.92;;;;;;;11.85;88.67;101039.53;5075707;28;20355;-54
2022/09/16 00:50:44;;;;;;;5.60;2.67;;;;;;;11.83;87.94;101039.66;5054826;28;20049;-55
2022/09/16 00:53:19;;;;;;;10.20;2.80;;;;;;;11.79;88.70;101038.22;5125211;22;20114;-55
2022/09/16 00:55:45;;;;;;;6.68;2.60;;;;;;;11.77;88.54;101032.13;5046069;28;20029;-55
2022/09/16 00:58:17;;;;;;;8.05;2.75;;;;;;;11.78;88.51;101035.66;5055490;28;20028;-55
2022/09/16 01:00:43;;;;;;;10.75;3.33;;;;;;;11.73;87.63;101028.03;5055631;28;20036;-55
2022/09/16 01:03:08;;;;;;;7.47;3.15;;;;;;;11.76;88.32;101030.47;5054217;28;20029;-55
2022/09/16 01:05:36;;;;;;;6.72;2.50;;;;;;;11.70;88.57;101030.09;5055544;28;20071;-55
2022/09/16 01:08:01;;;;;;;7.20;2.80;;;;;;;11.64;87.96;101028.75;5041708;28;20048;-55
2022/09/16 01:10:27;;;;;;;5.70;2.17;;;;;;;11.59;87.78;101026.47;5055306;28;20025;-55
2022/09/16 01:13:13;;;;;;;8.15;2.80;;;;;;;11.62;88.12;101028.88;5055398;28;20375;-55
2022/09/16 01:15:46;;;;;;;5.60;2.72;;;;;;;11.55;87.60;101029.47;5053696;28;20032;-55
2022/09/16 01:18:30;;;;;;;7.78;3.17;;;;;;;11.53;88.64;101029.59;5053710;28;20051;-55
2022/09/16 01:21:35;;;;;;;7.75;2.55;;;;;;;11.50;87.81;101027.16;5053625;28;20420;-55
2022/09/16 01:24:11;;;;;;;8.57;2.70;;;;;;;11.41;88.28;101035.88;5044464;28;20396;-55
2022/09/16 01:27:12;;;;;;;9.13;2.80;;;;;;;11.42;87.93;101033.09;5053280;28;20147;-55
2022/09/16 01:30:05;;;;;;;6.47;2.72;;;;;;;11.39;87.61;101028.00;5044065;28;20336;-55
2022/09/16 01:32:40;;;;;;;13.85;2.80;;;;;;;11.31;88.45;101030.41;5040660;28;20059;-55
2022/09/16 01:35:32;;;;;;;7.97;2.50;;;;;;;11.30;87.59;101032.22;5053017;28;20025;-55
2022/09/16 01:38:28;;;;;;;4.57;2.78;;;;;;;11.30;88.22;101028.72;5051577;28;20146;-55
2022/09/16 01:41:09;;;;;;;9.65;2.50;;;;;;;11.28;88.63;101027.97;5042895;28;20493;-54
2022/09/16 01:43:44;;;;;;;6.65;2.63;;;;;;;11.23;88.57;101031.00;5051115;28;20032;-53
2022/09/16 01:46:28;;;;;;;11.35;2.95;;;;;;;11.21;88.17;101032.09;5046393;28;20036;-54
2022/09/16 01:49:01;;;;;;;7.57;2.65;;;;;;;11.09;88.00;101029.41;5041629;28;20462;-54
2022/09/16 01:51:36;;;;;;;8.35;2.90;;;;;;;11.05;88.28;101022.59;5040355;28;20043;-54
2022/09/16 01:54:17;;;;;;;7.72;3.05;;;;;;;11.01;88.24;101020.31;5032368;28;20049;-54
2022/09/16 01:57:04;;;;;;;7.78;2.50;;;;;;;11.00;88.04;101021.25;5029682;28;20061;-55
2022/09/16 01:59:37;;;;;;;5.88;3.60;;;;;;;10.96;88.32;101028.63;5032995;28;20025;-55
2022/09/16 02:02:14;;;;;;;9.05;2.67;;;;;;;10.92;88.45;101033.34;5031792;28;20022;-55
2022/09/16 02:04:46;;;;;;;7.53;2.90;;;;;;;10.85;88.35;101032.06;5031208;28;20022;-55
2022/09/16 02:07:16;;;;;;;6.32;2.60;;;;;;;10.84;88.51;101038.38;5032647;28;20487;-53
2022/09/16 02:10:10;;;;;;;13.82;2.65;;;;;;;10.79;88.91;101035.22;5032739;28;20041;-54
2022/09/16 02:12:41;;;;;;;6.85;2.78;;;;;;;10.77;89.35;101037.09;5031904;28;20065;-55
2022/09/16 02:15:11;;;;;;;7.53;3.20;;;;;;;10.75;89.32;101041.69;5032112;28;20029;-54
2022/09/16 02:17:42;;;;;;;5.88;2.45;;;;;;;10.73;88.71;101035.66;5032659;28;20032;-55
2022/09/16 02:20:12;;;;;;;9.10;2.65;;;;;;;10.68;88.73;101036.00;5027767;28;20383;-55
2022/09/16 02:22:46;;;;;;;9.45;2.85;;;;;;;10.70;90.36;101044.69;5047307;28;20104;-55
2022/09/16 02:25:14;;;;;;;9.55;2.80;;;;;;;10.69;90.39;101036.81;5043740;28;20514;-54
2022/09/16 02:27:41;;;;;;;8.85;2.63;;;;;;;10.71;89.79;101034.94;5032532;28;20056;-55
2022/09/16 02:30:15;;;;;;;7.40;2.60;;;;;;;10.70;89.91;101042.03;5030940;28;20119;-55
2022/09/16 02:32:45;;;;;;;6.85;2.75;;;;;;;10.73;90.53;101033.00;5030691;28;20026;-53
2022/09/16 02:35:15;;;;;;;6.43;2.80;;;;;;;10.76;90.60;101034.56;5032693;28;20018;-55
2022/09/16 02:37:55;;;;;;;7.85;2.55;;;;;;;10.77;89.75;101037.09;5031397;28;20037;-55
2022/09/16 02:40:40;;;;;;;6.30;2.60;;;;;;;10.79;91.39;101035.22;5031167;28;20419;-55
2022/09/16 02:43:06;;;;;;;5.25;2.45;;;;;;;10.82;90.58;101032.28;5014609;28;20038;-53
2022/09/16 02:46:05;;;;;;;7.25;2.63;;;;;;;10.87;90.27;101034.63;5031523;28;20569;-54
2022/09/16 02:48:46;;;;;;;9.93;2.20;;;;;;;10.89;90.99;101035.34;5023725;28;20065;-55
2022/09/16 02:51:31;;;;;;;8.40;2.85;;;;;;;10.90;90.39;101039.72;5032149;28;20090;-53
2022/09/16 02:54:14;;;;;;;6.75;2.63;;;;;;;10.89;90.80;101035.34;5032039;28;20064;-55
2022/09/16 02:56:40;;;;;;;6.85;2.70;;;;;;;10.89;90.26;101038.88;5031475;28;20030;-55
2022/09/16 02:59:10;;;;;;;8.23;2.40;;;;;;;10.89;90.05;101038.00;5031227;28;20040;-53
2022/09/16 03:01:41;;;;;;;9.73;2.80;;;;;;;10.89;90.03;101040.66;5031761;28;20102;-54
2022/09/16 03:04:09;;;;;;;7.22;2.80;;;;;;;10.89;90.33;101044.19;5031685;28;20029;-55
2022/09/16 03:06:35;;;;;;;7.22;2.65;;;;;;;10.91;90.75;101034.28;5031933;28;20045;-54
2022/09/16 03:09:03;;;;;;;9.95;2.65;;;;;;;10.89;90.76;101043.31;5030780;28;20022;-54
2022/09/16 03:11:47;;;;;;;11.88;2.92;;;;;;;10.88;90.68;101031.84;5014559;28;20025;-55
2022/09/16 03:14:25;;;;;;;8.57;2.70;;;;;;;10.92;90.79;101028.00;5025979;28;20034;-53
2022/09/16 03:17:21;;;;;;;5.50;2.13;;;;;;;10.92;90.44;101024.50;5027546;28;20025;-54
2022/09/16 03:20:22;;;;;;;9.80;2.40;;;;;;;10.92;89.99;101022.69;5030329;28;20184;-53
2022/09/16 03:22:59;;;;;;;5.78;2.55;;;;;;;10.94;90.80;101025.22;5024472;28;20044;-54
2022/09/16 03:25:46;;;;;;;4.68;2.55;;;;;;;10.98;90.98;101026.69;5030001;28;20318;-54
2022/09/16 03:28:41;;;;;;;9.07;2.20;;;;;;;10.97;91.04;101027.66;5030805;28;20021;-55
2022/09/16 03:31:14;;;;;;;6.55;2.60;;;;;;;10.95;91.40;101024.25;5011050;28;20124;-54
2022/09/16 03:33:45;;;;;;;5.78;2.35;;;;;;;10.97;90.80;101026.81;5019584;28;20076;-52
2022/09/16 03:36:17;;;;;;;7.85;2.42;;;;;;;10.97;91.27;101032.97;5030988;28;20040;-53
2022/09/16 03:38:43;;;;;;;8.48;2.38;;;;;;;10.94;91.67;101022.56;5031042;28;20120;-53
2022/09/16 03:41:09;;;;;;;4.60;2.45;;;;;;;10.95;91.23;101024.25;5030954;28;20029;-56
2022/09/16 03:43:35;;;;;;;11.65;2.28;;;;;;;10.96;91.69;101027.75;5030095;28;20021;-55
2022/09/16 03:46:00;;;;;;;4.72;2.10;;;;;;;10.93;90.76;101021.72;5029604;28;20068;-53
2022/09/16 03:48:25;;;;;;;4.65;2.13;;;;;;;10.92;90.17;101019.16;5030465;28;20056;-51
2022/09/16 03:50:51;;;;;;;7.65;2.25;;;;;;;10.93;90.46;101021.72;5030452;28;20037;-53
2022/09/16 03:53:16;;;;;;;7.15;2.58;;;;;;;10.91;90.34;101026.31;5029191;28;20060;-54
2022/09/16 03:55:42;;;;;;;6.22;2.22;;;;;;;10.90;90.63;101024.59;5029357;28;20024;-54
2022/09/16 03:58:07;;;;;;;7.07;2.05;;;;;;;10.87;90.80;101024.81;5027172;28;20033;-53
2022/09/16 04:00:32;;;;;;;5.88;2.50;;;;;;;10.89;90.62;101027.38;5027995;28;20422;-54
2022/09/16 04:02:59;;;;;;;8.20;2.00;;;;;;;10.88;90.87;101018.56;5029297;28;20383;-53
2022/09/16 04:05:25;;;;;;;5.82;2.15;;;;;;;10.86;90.92;101027.63;5030314;28;20033;-53
2022/09/16 04:07:50;;;;;;;7.25;2.22;;;;;;;10.82;90.72;101026.16;5029115;28;20471;-54
2022/09/16 04:10:16;;;;;;;8.38;2.40;;;;;;;10.83;91.52;101020.72;5029821;28;20025;-53
2022/09/16 04:12:41;;;;;;;7.97;2.10;;;;;;;10.82;91.64;101026.16;5002680;28;20470;-52
2022/09/16 04:15:07;;;;;;;6.65;2.42;;;;;;;10.81;91.19;101019.13;4994273;28;20045;-54
2022/09/16 04:17:33;;;;;;;8.20;2.88;;;;;;;10.80;91.00;101017.44;5030429;28;20406;-54
2022/09/16 04:19:59;;;;;;;7.28;2.03;;;;;;;10.81;91.36;101030.63;5030051;28;20368;-54
2022/09/16 04:22:28;;;;;;;4.43;2.15;;;;;;;10.79;91.61;101029.03;5030634;28;20034;-54
2022/09/16 04:24:53;;;;;;;9.93;2.47;;;;;;;10.82;91.91;101032.28;5030397;28;20033;-55
2022/09/16 04:27:19;;;;;;;6.35;1.98;;;;;;;10.84;91.56;101029.53;5029501;28;20026;-54
2022/09/16 04:29:44;;;;;;;5.70;2.42;;;;;;;10.86;92.05;101035.59;5030168;28;20029;-54
2022/09/16 04:32:09;;;;;;;5.78;2.00;;;;;;;10.86;92.50;101024.97;5030808;28;20118;-54
2022/09/16 04:34:35;;;;;;;5.05;2.08;;;;;;;10.87;92.42;101032.78;5017534;28;20030;-54
2022/09/16 04:37:00;;;;;;;6.10;2.17;;;;;;;10.86;92.58;101041.75;5030961;28;20463;-55
2022/09/16 04:39:26;;;;;;;5.65;2.08;;;;;;;10.88;93.45;101044.28;5030271;28;20025;-54
2022/09/16 04:41:51;;;;;;;7.38;2.17;;;;;;;10.90;93.99;101045.84;5030602;28;20538;-54
2022/09/16 04:44:17;;;;;;;7.68;2.15;;;;;;;10.90;94.41;101042.38;5029903;28;20399;-53
2022/09/16 04:46:42;;;;;;;6.68;2.10;;;;;;;10.91;94.40;101036.09;5029157;28;20128;-54
2022/09/16 04:49:07;;;;;;;6.43;1.77;;;;;;;10.92;94.81;101029.81;5030100;28;20022;-54
2022/09/16 04:51:33;;;;;;;5.20;1.77;;;;;;;10.90;94.54;101011.31;5029903;28;20036;-55
2022/09/16 04:54:00;;;;;;;5.32;1.85;;;;;;;10.92;94.48;101017.38;5012620;28;20395;-55
2022/09/16 04:56:28;;;;;;;5.20;2.38;;;;;;;10.95;94.92;101018.13;5029338;28;20063;-54
2022/09/16 04:58:57;;;;;;;4.53;1.77;;;;;;;10.95;94.34;101023.44;5017354;28;20038;-53
2022/09/16 05:01:25;;;;;;;5.65;1.60;;;;;;;10.94;93.59;101017.25;5029253;28;20120;-52
2022/09/16 05:03:56;;;;;;;7.07;1.70;;;;;;;10.98;94.24;101025.84;5030328;28;20041;-52
2022/09/16 05:06:33;;;;;;;3.58;1.35;;;;;;;10.98;93.52;101017.88;5030016;28;20045;-52
2022/09/16 05:09:01;;;;;;;5.65;1.58;;;;;;;10.97;93.85;101024.16;5027551;28;20144;-54
2022/09/16 05:11:29;;;;;;;3.00;1.42;;;;;;;10.95;93.65;101029.56;5018002;28;20064;-52
2022/09/16 05:13:57;;;;;;;4.13;1.70;;;;;;;10.92;93.12;101032.47;5028896;28;20087;-53
2022/09/16 05:16:23;;;;;;;9.73;2.00;;;;;;;10.93;93.00;101026.19;5029766;28;20033;-52
2022/09/16 05:18:50;;;;;;;4.13;1.50;;;;;;;10.93;93.34;101035.00;5029685;28;20026;-54
2022/09/16 05:21:20;;;;;;;4.38;1.80;;;;;;;10.91;93.46;101031.63;5028056;28;20183;-53
2022/09/16 05:23:47;;;;;;;7.50;1.77;;;;;;;10.92;94.25;101040.44;5018300;28;20028;-54
2022/09/16 05:26:15;;;;;;;8.70;1.80;;;;;;;10.92;94.46;101040.44;5029016;28;20601;-54
2022/09/16 05:28:40;;;;;;;6.65;2.15;;;;;;;10.93;94.42;101042.97;5031426;28;20147;-53
2022/09/16 05:31:13;;;;;;;3.58;2.10;;;;;;;10.93;94.46;101045.63;5032602;28;20120;-53
2022/09/16 05:33:39;;;;;;;6.22;2.00;;;;;;;10.96;95.04;101033.94;5033477;28;20026;-54
2022/09/16 05:36:15;;;;;;;5.25;1.60;;;;;;;10.96;95.14;101039.25;5033154;28;20025;-51
2022/09/16 05:38:41;;;;;;;7.57;1.90;;;;;;;10.97;95.74;101048.91;5032545;28;20033;-53
2022/09/16 05:41:07;;;;;;;7.45;1.70;;;;;;;10.98;95.41;101039.97;5032515;28;20068;-55
2022/09/16 05:43:34;;;;;;;5.82;1.60;;;;;;;10.98;95.10;101039.97;5034004;28;20129;-55
2022/09/16 05:46:00;;;;;;;6.97;1.83;;;;;;;11.02;96.05;101036.13;5033019;28;20397;-54
2022/09/16 05:48:26;;;;;;;5.93;1.60;;;;;;;11.03;95.29;101035.16;5033002;28;20475;-53
2022/09/16 05:50:56;;;;;;;6.05;1.63;;;;;;;11.04;95.32;101036.88;5032674;28;20029;-54
2022/09/16 05:53:22;;;;;;;7.53;1.60;;;;;;;11.07;95.03;101038.44;5032507;28;20053;-52
2022/09/16 05:55:59;;;;;;;4.90;1.50;;;;;;;11.09;96.14;101040.03;5032146;28;20490;-49
2022/09/16 05:58:27;;;;;;;8.18;2.10;;;;;;;11.13;95.90;101037.97;5032959;28;20124;-55
2022/09/16 06:01:00;;;;;;;5.65;1.70;;;;;;;11.16;95.96;101036.88;5029447;28;20061;-55
2022/09/16 06:03:26;;;;;;;4.85;1.60;;;;;;;11.18;95.63;101035.81;5033184;28;20502;-53
2022/09/16 06:05:57;;;;;;;6.18;1.67;;;;;;;11.19;95.27;101037.53;5020707;28;20026;-55
2022/09/16 06:08:23;;;;;;;7.57;1.58;;;;;;;11.23;95.00;101038.97;5026797;28;20034;-54
2022/09/16 06:10:48;;;;;;;4.68;1.45;;;;;;;11.26;95.03;101048.53;5028055;28;20030;-54
2022/09/16 06:13:13;;;;;;;6.17;1.40;;;;;;;11.27;95.14;101047.56;5028777;28;20041;-55
2022/09/16 06:15:48;;;;;;;5.85;1.52;;;;;;;11.29;94.96;101053.59;5025418;28;20288;-56
2022/09/16 06:18:15;;;;;;;6.88;1.80;;;;;;;11.29;95.00;101053.59;5019832;28;20050;-55
2022/09/16 06:20:40;;;;;;;5.07;1.50;;;;;;;11.30;95.00;101050.81;5028078;28;20116;-55
2022/09/16 06:23:05;;;;;;;5.22;1.42;;;;;;;11.33;94.33;101038.28;5028195;28;20255;-55
2022/09/16 06:25:33;;;;;;;4.72;1.27;;;;;;;11.37;94.38;101055.69;5013809;28;20034;-55
2022/09/16 06:27:58;;;;;;;5.15;1.65;;;;;;;11.40;94.30;101050.13;5028760;28;20045;-55
2022/09/16 06:30:23;;;;;;;3.25;1.60;;;;;;;11.41;94.57;101057.16;5028353;28;20391;-55
2022/09/16 06:32:48;;;;;;;4.22;1.58;;;;;;;11.43;93.55;101053.41;5027600;28;20159;-54
2022/09/16 06:35:14;;;;;;;5.93;1.90;;;;;;;11.48;94.05;101055.72;5029859;28;20064;-55
2022/09/16 06:37:39;;;;;;;3.63;1.10;;;;;;;11.50;93.84;101060.91;5013516;28;20091;-53
2022/09/16 06:40:05;;;;;;;5.00;1.55;;;;;;;11.55;94.30;101066.72;5030171;28;20053;-56
2022/09/16 06:42:30;;;;;;;3.22;1.30;;;;;;;11.58;94.12;101062.00;5029601;28;20423;-56
2022/09/16 06:44:57;;;;;;;4.88;1.55;;;;;;;11.60;93.88;101060.06;5027644;28;20029;-55
2022/09/16 06:47:22;;;;;;;3.67;1.73;;;;;;;11.64;94.83;101069.53;5022836;28;20045;-56
2022/09/16 06:49:47;;;;;;;4.43;1.48;;;;;;;11.68;94.46;101070.13;5021752;28;20029;-56
2022/09/16 06:52:13;;;;;;;5.85;1.90;;;;;;;11.68;94.49;101072.78;5027391;28;20128;-55
2022/09/16 06:54:38;;;;;;;2.15;1.30;;;;;;;11.71;93.93;101074.34;5018584;28;20049;-54
2022/09/16 06:57:03;;;;;;;6.97;2.63;;;;;;;11.70;93.51;101078.00;5029696;28;20513;-56
2022/09/16 06:59:29;;;;;;;4.05;1.38;;;;;;;11.70;92.60;101070.84;5028655;28;20149;-54
2022/09/16 07:01:54;;;;;;;4.55;1.58;;;;;;;11.69;92.45;101066.50;5021511;28;21551;-55
2022/09/16 07:04:19;;;;;;;4.60;1.58;;;;;;;11.72;93.07;101066.25;5024907;28;20026;-55
2022/09/16 07:06:45;;;;;;;3.40;1.77;;;;;;;11.76;92.71;101070.38;5019284;28;20058;-55
2022/09/16 07:09:11;;;;;;;6.53;1.67;;;;;;;11.83;92.53;101068.91;5027049;28;20124;-52
2022/09/16 07:11:36;;;;;;;4.40;1.35;;;;;;;11.89;92.60;101066.75;5026152;28;20030;-56
2022/09/16 07:14:01;;;;;;;8.48;1.90;;;;;;;11.97;92.81;101064.34;5035354;28;20084;-53
2022/09/16 07:16:27;;;;;;;4.88;1.73;;;;;;;12.04;92.28;101060.25;5024271;28;20048;-54
2022/09/16 07:18:54;;;;;;;4.00;1.50;;;;;;;12.14;92.03;101066.53;5029612;28;20099;-54
2022/09/16 07:21:23;;;;;;;5.90;1.73;;;;;;;12.25;91.82;101067.50;5027466;28;20053;-54
2022/09/16 07:23:48;;;;;;;4.18;1.23;;;;;;;12.48;92.15;101065.66;5026551;28;20124;-55
2022/09/16 07:26:19;;;;;;;3.03;1.40;;;;;;;12.61;89.16;101069.00;5028571;28;20128;-54
2022/09/16 07:28:46;;;;;;;4.82;1.52;;;;;;;12.95;90.86;101074.22;5027729;28;20490;-55
2022/09/16 07:31:15;;;;;;;2.92;1.30;;;;;;;13.14;88.51;101086.88;5025473;28;20038;-55
2022/09/16 07:33:42;;;;;;;3.95;1.50;;;;;;;13.26;88.14;101079.66;5027663;28;20383;-53
2022/09/16 07:36:09;;;;;;;3.53;1.65;;;;;;;13.25;86.65;101077.94;5031920;28;20037;-54
2022/09/16 07:38:35;;;;;;;4.90;1.60;;;;;;;13.26;85.83;101077.81;5030170;28;20391;-54
2022/09/16 07:41:10;;;;;;;3.65;1.40;;;;;;;13.23;85.31;101067.41;5032974;28;20442;-54
2022/09/16 07:43:36;;;;;;;4.13;1.30;;;;;;;13.26;86.08;101082.31;5028270;28;20037;-54
2022/09/16 07:46:01;;;;;;;3.08;1.55;;;;;;;13.33;86.16;101084.34;5031203;28;20032;-54
2022/09/16 07:48:30;;;;;;;3.60;1.80;;;;;;;13.36;86.75;101091.28;5032444;28;20037;-54
2022/09/16 07:51:03;;;;;;;5.15;1.25;;;;;;;13.37;86.60;101090.28;5032213;28;20049;-54
2022/09/16 07:53:29;;;;;;;3.25;1.52;;;;;;;13.33;86.52;101070.19;5032194;28;20038;-54
2022/09/16 07:55:59;;;;;;;4.85;1.70;;;;;;;13.34;86.77;101074.56;5032359;28;20391;-54
2022/09/16 07:58:25;;;;;;;5.50;1.90;;;;;;;13.32;87.51;101087.16;5032429;28;20029;-54
2022/09/16 08:00:50;;;;;;;2.58;1.40;;;;;;;13.33;87.42;101086.19;5031151;28;20037;-54
2022/09/16 08:03:16;;;;;;;4.43;1.40;;;;;;;13.29;86.67;101100.75;5030765;28;20033;-54
2022/09/16 08:05:42;;;;;;;5.75;1.75;;;;;;;13.42;88.63;101097.91;5032625;28;20029;-54
2022/09/16 08:08:07;;;;;;;3.90;1.83;;;;;;;13.67;88.58;101102.00;5032617;28;20026;-54
2022/09/16 08:10:32;;;;;;;5.53;1.70;;;;;;;13.91;88.44;101106.22;5029458;28;20044;-54
2022/09/16 08:12:58;;;;;;;2.85;2.00;;;;;;;14.18;86.60;101100.28;5032610;28;20050;-54
2022/09/16 08:15:24;;;;;;;6.70;2.00;;;;;;;14.34;85.92;101102.44;5032142;28;20108;-53
2022/09/16 08:17:49;;;;;;;4.30;1.42;;;;;;;14.51;84.32;101098.28;5031980;28;20037;-54
2022/09/16 08:20:14;;;;;;;3.00;1.85;;;;;;;14.69;83.70;101090.44;5032259;28;20037;-54
2022/09/16 08:22:40;;;;;;;5.55;1.70;;;;;;;14.83;83.69;101102.59;5027024;28;20053;-54
2022/09/16 08:25:05;;;;;;;3.03;1.55;;;;;;;14.88;82.64;101097.66;5031459;28;20120;-54
2022/09/16 08:27:34;;;;;;;5.30;1.58;;;;;;;15.02;82.05;101107.09;5030178;28;20498;-55
2022/09/16 08:29:59;;;;;;;5.03;1.47;;;;;;;15.01;80.65;101100.91;5029151;28;20057;-54
2022/09/16 08:32:24;;;;;;;6.47;1.70;;;;;;;15.04;81.39;101113.16;5031902;28;20060;-54
2022/09/16 08:34:50;;;;;;;6.80;1.57;;;;;;;15.09;80.62;101116.28;5031397;28;20709;-55
2022/09/16 08:37:15;;;;;;;4.32;1.70;;;;;;;15.26;80.42;101117.38;5032170;28;20286;-55
2022/09/16 08:39:40;;;;;;;7.80;1.98;;;;;;;15.45;80.17;101109.31;5031984;28;20056;-55
2022/09/16 08:42:22;;;;;;;4.80;1.70;;;;;;;15.70;80.57;101107.91;5032030;28;20095;-55
2022/09/16 08:45:05;;;;;;;6.07;1.63;;;;;;;15.90;78.15;101106.03;5031575;28;20284;-55
2022/09/16 08:47:49;;;;;;;4.70;1.52;;;;;;;16.10;76.88;101103.25;5032238;28;20055;-54
2022/09/16 08:50:21;;;;;;;2.58;1.40;;;;;;;16.30;76.32;101097.81;5022199;28;20026;-54
2022/09/16 08:52:47;;;;;;;5.63;1.40;;;;;;;16.45;73.99;101102.56;5031817;28;20037;-55
2022/09/16 08:55:36;;;;;;;5.15;1.65;;;;;;;16.64;74.99;101093.53;5031375;28;20037;-54
2022/09/16 08:58:18;;;;;;;;;;;;;;;16.82;76.97;101111.50;5031996;28;20065;-54
2022/09/16 09:00:47;;;;;;;3.35;1.15;;;;;;;16.89;68.00;101098.34;5025944;28;19913;-54
2022/09/16 09:03:12;;;;;;;;;;;;;;;17.01;73.70;101107.84;5034973;28;20128;-54
2022/09/16 09:05:48;;;;;;;3.05;1.20;;;;;;;16.82;69.41;101109.66;5034965;28;19996;-55
2022/09/16 09:08:37;;;;;;;4.55;1.30;;;;;;;16.87;71.75;101113.72;5035499;28;20080;-54
2022/09/16 09:11:16;;;;;;;5.32;1.63;;;;;;;16.81;70.31;101097.22;5024615;28;20036;-55
2022/09/16 09:13:47;;;;;;;5.75;1.63;;;;;;;16.78;68.48;101107.41;5033959;28;20128;-54
2022/09/16 09:16:40;;;;;;;5.45;1.33;;;;;;;16.75;70.04;101103.22;5035470;28;20567;-54
2022/09/16 09:19:22;;;;;;;3.58;1.00;;;;;;;16.71;70.43;101103.66;5018970;28;20037;-55
2022/09/16 09:21:59;;;;;;;5.57;1.30;;;;;;;16.68;70.83;101103.97;5032284;28;20034;-54
2022/09/16 09:24:58;;;;;;;6.40;1.67;;;;;;;16.62;70.39;101108.06;5032630;28;20029;-54
2022/09/16 09:27:30;;;;;;;4.47;1.33;;;;;;;16.75;68.65;101111.28;5032486;28;20025;-54
2022/09/16 09:30:09;;;;;;;3.45;1.08;;;;;;;16.86;69.31;101106.69;5033554;28;20033;-54
2022/09/16 09:32:57;;;;;;;4.00;1.08;;;;;;;16.87;68.38;101108.38;5033853;28;20476;-54
2022/09/16 09:35:52;;;;;;;2.70;1.40;;;;;;;16.86;68.40;101104.84;5031792;28;20025;-54
2022/09/16 09:38:43;;;;;;;4.90;1.15;;;;;;;17.08;69.04;101108.91;5034887;28;20044;-55
2022/09/16 09:41:14;;;;;;;4.82;1.00;;;;;;;17.24;66.99;101102.03;5032379;28;20116;-55
2022/09/16 09:43:42;;;;;;;3.45;0.93;;;;;;;17.24;65.27;101094.81;5034419;28;20040;-55
2022/09/16 09:46:16;;;;;;;4.55;1.42;;;;;;;17.37;66.85;101097.94;5032584;28;20533;-55
2022/09/16 09:48:50;;;;;;;2.80;0.90;;;;;;;17.57;64.66;101097.75;5034317;28;20018;-55
2022/09/16 09:51:26;;;;;;;3.50;0.95;;;;;;;17.71;63.57;101096.31;5034144;28;20558;-55
2022/09/16 09:53:55;;;;;;;4.78;1.15;;;;;;;17.56;60.47;101093.38;5034465;28;20034;-55
2022/09/16 09:56:34;;;;;;;1.33;0.80;;;;;;;17.72;62.45;101093.47;5034877;28;20495;-55
2022/09/16 09:59:30;;;;;;;4.50;1.20;;;;;;;17.75;64.06;101095.84;5031891;28;20025;-55
2022/09/16 10:01:57;;;;;;;3.55;1.35;;;;;;;17.75;63.49;101097.66;5032675;28;20042;-55
2022/09/16 10:04:23;;;;;;;6.22;4.32;;;;;;;17.56;63.90;101110.31;5034940;28;20104;-55
2022/09/16 10:06:51;;;;;;;8.88;3.15;;;;;;;17.36;66.04;101133.00;5039102;28;20499;-55
2022/09/16 10:09:18;;;;;;;4.13;1.30;;;;;;;17.01;64.83;101145.41;5033969;28;20084;-53
2022/09/16 10:11:50;;;;;;;6.97;1.08;;;;;;;16.52;65.79;101145.69;5033137;28;20021;-56
2022/09/16 10:14:36;;;;;;;9.15;1.33;;;;;;;16.23;66.73;101145.81;5030881;28;20028;-57
2022/09/16 10:17:14;;;;;;;5.68;0.95;;;;;;;15.70;67.76;101139.16;5032713;28;20442;-56
2022/09/16 10:19:51;;;;;;;3.13;1.00;;;;;;;15.51;70.30;101138.22;5034128;28;20032;-57
2022/09/16 10:22:26;;;;;;;2.38;0.80;;;;;;;15.24;71.49;101130.91;5028855;28;20036;-57
2022/09/16 10:25:06;;;;;;;3.78;0.98;;;;;;;15.13;72.53;101123.84;5026444;28;20108;-56
2022/09/16 10:27:34;;;;;;;3.67;0.93;;;;;;;14.98;73.76;101123.41;5024004;28;20383;-57
2022/09/16 10:30:05;;;;;;;2.70;0.60;;;;;;;15.03;73.10;101122.16;5024455;28;20522;-55
2022/09/16 10:32:39;;;;;;;1.63;0.70;;;;;;;14.95;72.25;101121.06;5021100;28;20448;-57
2022/09/16 10:35:08;;;;;;;3.55;0.80;;;;;;;14.88;73.76;101124.41;5028681;28;20380;-55
2022/09/16 10:37:33;;;;;;;;;;;;;;;15.18;73.42;101131.47;5024007;28;20143;-56
2022/09/16 10:40:00;;;;;;;4.30;0.68;;;;;;;14.94;74.58;101126.53;5030726;28;20008;-54
2022/09/16 10:42:28;;;;;;;3.17;0.80;;;;;;;14.91;73.92;101124.13;5033273;28;20498;-56
2022/09/16 10:45:21;;;;;;;4.82;0.85;;;;;;;15.01;75.34;101129.50;5030261;28;20129;-55
2022/09/16 10:47:53;;;;;;;5.22;1.20;;;;;;;15.05;77.79;101129.06;5023469;28;20431;-56
2022/09/16 10:50:19;;;;;;;4.82;1.00;;;;;;;15.18;75.12;101131.47;5022830;28;20491;-55
2022/09/16 10:52:46;;;;;;;3.35;1.10;;;;;;;15.26;76.33;101131.59;5027767;28;20047;-56
2022/09/16 10:55:18;;;;;;;4.07;1.27;;;;;;;15.25;78.36;101126.41;5029573;28;20029;-55
2022/09/16 10:57:43;;;;;;;3.28;0.90;;;;;;;15.25;76.65;101119.19;5032278;28;20032;-56
2022/09/16 11:00:13;;;;;;;1.73;1.00;;;;;;;15.22;78.10;101108.81;5026916;28;20392;-55
2022/09/16 11:03:17;;;;;;;3.97;1.05;;;;;;;15.23;76.31;101126.53;5032346;28;20302;-55
2022/09/16 11:05:44;;;;;;;2.22;1.02;;;;;;;15.13;74.62;101126.53;5030706;28;20122;-55
2022/09/16 11:08:37;;;;;;;2.90;0.93;;;;;;;15.18;77.01;101131.47;5031750;28;20029;-55
2022/09/16 11:11:06;;;;;;;2.78;1.20;;;;;;;15.00;76.46;101125.97;5029018;28;20040;-55
2022/09/16 11:13:43;;;;;;;4.77;1.20;;;;;;;15.04;77.88;101130.06;5032185;28;20025;-56
2022/09/16 11:16:25;;;;;;;4.07;1.52;;;;;;;14.96;79.20;101124.56;5032750;28;20432;-55
2022/09/16 11:19:10;;;;;;;4.95;1.45;;;;;;;15.00;77.76;101125.97;5032771;28;20450;-56
2022/09/16 11:21:38;;;;;;;8.43;2.42;;;;;;;14.89;79.04;101124.28;5029238;28;20037;-56
2022/09/16 11:24:33;;;;;;;5.47;1.50;;;;;;;14.97;79.49;101120.88;5032691;28;20083;-56
2022/09/16 11:27:25;;;;;;;3.47;1.30;;;;;;;15.05;79.56;101122.88;5030710;28;20064;-54
2022/09/16 11:30:13;;;;;;;7.47;2.22;;;;;;;15.28;79.11;101120.75;5030089;28;20033;-56
2022/09/16 11:33:13;;;;;;;3.40;1.50;;;;;;;15.61;79.61;101123.97;5031678;28;20033;-55
2022/09/16 11:35:57;;;;;;;4.32;1.73;;;;;;;15.99;80.41;101122.22;5026324;28;20034;-56
2022/09/16 11:38:37;;;;;;;6.00;1.88;;;;;;;16.30;79.22;101122.78;5023797;28;20476;-56
2022/09/16 11:41:09;;;;;;;4.55;1.65;;;;;;;16.56;77.80;101122.94;5030535;28;20545;-55
2022/09/16 11:43:44;;;;;;;5.47;1.40;;;;;;;16.72;74.62;101122.28;5029929;28;20104;-55
2022/09/16 11:46:22;;;;;;;6.45;1.38;;;;;;;16.75;72.99;101130.03;5029041;28;20495;-56
2022/09/16 11:49:05;;;;;;;4.68;1.30;;;;;;;16.83;72.11;101126.59;5027872;28;20025;-56